createdAt,value
2017-12-26T00:00:19.753Z,5.30
2017-12-26T00:01:19.597Z,5.30
2017-12-26T00:04:04.479Z,5.16
2017-12-26T00:05:04.376Z,5.18
2017-12-26T00:07:47.468Z,5.24
2017-12-26T00:08:47.303Z,5.16
2017-12-26T00:11:31.747Z,5.15
2017-12-26T00:12:31.664Z,5.09
2017-12-26T00:15:16.060Z,5.09
2017-12-26T00:16:16.494Z,5.06
2017-12-26T00:18:59.847Z,5.04
2017-12-26T00:19:59.719Z,5.01
2017-12-26T00:21:55.333Z,4.93
2017-12-26T00:22:54.827Z,4.91
2017-12-26T00:25:39.160Z,4.83
2017-12-26T00:26:39.089Z,4.78
2017-12-26T00:29:24.132Z,4.64
2017-12-26T00:30:24.101Z,4.72
2017-12-26T00:33:08.168Z,4.63
2017-12-26T00:34:08.012Z,4.69
2017-12-26T00:36:52.911Z,4.67
2017-12-26T00:37:52.813Z,4.69
2017-12-26T00:40:37.701Z,4.67
2017-12-26T00:41:38.230Z,4.57
2017-12-26T00:44:22.410Z,4.51
2017-12-26T00:45:21.936Z,4.45
2017-12-26T00:48:05.741Z,4.39
2017-12-26T00:49:05.307Z,4.45
2017-12-26T00:51:49.689Z,4.46
2017-12-26T00:52:49.632Z,4.39
2017-12-26T00:55:34.040Z,4.35
2017-12-26T00:56:33.988Z,4.28
2017-12-26T00:59:17.737Z,4.34
2017-12-26T01:00:17.373Z,4.30
2017-12-26T01:03:01.425Z,4.31
2017-12-26T01:04:01.380Z,4.28
2017-12-26T01:06:45.826Z,4.34
2017-12-26T01:07:46.625Z,4.24
2017-12-26T01:10:29.116Z,4.31
2017-12-26T01:11:29.066Z,4.21
2017-12-26T01:14:14.072Z,4.28
2017-12-26T01:15:13.839Z,4.23
2017-12-26T01:17:58.204Z,4.30
2017-12-26T01:18:58.123Z,4.21
2017-12-26T01:21:42.191Z,4.30
2017-12-26T01:22:42.132Z,4.34
2017-12-26T01:25:26.544Z,4.38
2017-12-26T01:26:26.865Z,4.35
2017-12-26T01:27:26.462Z,4.51
2017-12-26T01:28:26.432Z,4.42
2017-12-26T01:29:26.413Z,4.60
2017-12-26T01:30:26.425Z,4.56
2017-12-26T01:31:26.755Z,4.66
2017-12-26T01:32:26.826Z,4.64
2017-12-26T01:33:26.380Z,4.64
2017-12-26T01:34:26.357Z,4.82
2017-12-26T01:35:26.352Z,4.97
2017-12-26T01:36:26.341Z,5.00
2017-12-26T01:37:26.357Z,4.98
2017-12-26T01:38:26.355Z,5.04
2017-12-26T01:39:26.338Z,5.09
2017-12-26T01:40:26.366Z,5.11
2017-12-26T01:41:26.303Z,5.24
2017-12-26T01:42:26.276Z,5.25
2017-12-26T01:43:26.274Z,5.32
2017-12-26T01:44:26.279Z,5.32
2017-12-26T01:45:26.244Z,5.32
2017-12-26T01:46:26.246Z,5.30
2017-12-26T01:47:26.246Z,5.37
2017-12-26T01:48:26.245Z,5.37
2017-12-26T01:49:26.218Z,5.39
2017-12-26T01:50:26.221Z,5.43
2017-12-26T01:51:26.197Z,5.58
2017-12-26T01:52:26.196Z,5.44
2017-12-26T01:53:26.196Z,5.47
2017-12-26T01:54:26.170Z,5.55
2017-12-26T01:55:26.166Z,5.61
2017-12-26T01:56:26.155Z,5.70
2017-12-26T01:57:26.143Z,5.69
2017-12-26T01:58:26.139Z,5.75
2017-12-26T01:59:26.127Z,5.75
2017-12-26T02:00:26.136Z,5.94
2017-12-26T02:01:26.107Z,5.97
2017-12-26T02:02:26.116Z,5.98
2017-12-26T02:03:26.086Z,6.05
2017-12-26T02:04:26.076Z,6.11
2017-12-26T02:05:26.067Z,6.11
2017-12-26T02:06:26.063Z,6.18
2017-12-26T02:07:26.049Z,6.15
2017-12-26T02:08:26.033Z,6.13
2017-12-26T02:09:26.044Z,6.30
2017-12-26T02:10:26.025Z,6.31
2017-12-26T02:11:26.011Z,6.37
2017-12-26T02:12:26.038Z,6.37
2017-12-26T02:13:26.004Z,6.46
2017-12-26T02:14:26.001Z,6.40
2017-12-26T02:15:25.985Z,6.43
2017-12-26T02:16:25.994Z,6.35
2017-12-26T02:17:25.973Z,6.38
2017-12-26T02:18:25.971Z,6.50
2017-12-26T02:19:25.939Z,6.45
2017-12-26T02:20:25.931Z,6.42
2017-12-26T02:21:25.927Z,6.42
2017-12-26T02:22:29.552Z,6.42
2017-12-26T02:23:25.902Z,6.43
2017-12-26T02:24:25.923Z,6.40
2017-12-26T02:25:25.891Z,6.37
2017-12-26T02:26:25.894Z,6.46
2017-12-26T02:27:25.881Z,6.38
2017-12-26T02:28:25.876Z,6.34
2017-12-26T02:29:25.858Z,6.38
2017-12-26T02:30:25.858Z,6.46
2017-12-26T02:31:25.851Z,6.42
2017-12-26T02:32:25.825Z,6.42
2017-12-26T02:33:25.833Z,6.42
2017-12-26T02:34:25.816Z,6.40
2017-12-26T02:35:25.828Z,6.35
2017-12-26T02:36:25.796Z,6.43
2017-12-26T02:37:25.790Z,6.42
2017-12-26T02:38:25.774Z,6.40
2017-12-26T02:39:25.767Z,6.42
2017-12-26T02:40:25.760Z,6.35
2017-12-26T02:41:25.779Z,6.40
2017-12-26T02:42:25.744Z,6.43
2017-12-26T02:43:25.728Z,6.46
2017-12-26T02:44:25.719Z,6.42
2017-12-26T02:45:25.719Z,6.50
2017-12-26T02:46:25.749Z,6.47
2017-12-26T02:47:25.691Z,6.40
2017-12-26T02:48:25.692Z,6.38
2017-12-26T02:49:25.675Z,6.49
2017-12-26T02:50:25.669Z,6.42
2017-12-26T02:51:25.690Z,6.43
2017-12-26T02:52:25.665Z,6.40
2017-12-26T02:53:25.660Z,6.45
2017-12-26T02:54:25.633Z,6.45
2017-12-26T02:55:25.629Z,6.55
2017-12-26T02:56:25.619Z,6.49
2017-12-26T02:57:25.603Z,6.55
2017-12-26T02:58:25.610Z,6.42
2017-12-26T02:59:25.594Z,6.42
2017-12-26T03:00:25.583Z,6.42
2017-12-26T03:01:25.569Z,6.38
2017-12-26T03:02:25.587Z,6.43
2017-12-26T03:03:25.567Z,6.49
2017-12-26T03:04:25.543Z,6.45
2017-12-26T03:05:25.557Z,6.42
2017-12-26T03:06:25.535Z,6.37
2017-12-26T03:07:25.522Z,6.47
2017-12-26T03:08:25.517Z,6.40
2017-12-26T03:09:25.518Z,6.52
2017-12-26T03:10:25.835Z,6.45
2017-12-26T03:11:25.521Z,6.43
2017-12-26T03:12:25.471Z,6.47
2017-12-26T03:13:25.479Z,6.46
2017-12-26T03:14:25.482Z,6.37
2017-12-26T03:15:25.485Z,6.45
2017-12-26T03:16:25.466Z,6.52
2017-12-26T03:17:25.430Z,6.55
2017-12-26T03:18:25.423Z,6.64
2017-12-26T03:19:25.416Z,6.70
2017-12-26T03:20:25.407Z,6.65
2017-12-26T03:21:25.416Z,6.65
2017-12-26T03:22:25.417Z,6.65
2017-12-26T03:23:25.378Z,6.65
2017-12-26T03:24:25.367Z,6.78
2017-12-26T03:25:25.382Z,6.74
2017-12-26T03:26:25.375Z,6.67
2017-12-26T03:27:25.346Z,6.68
2017-12-26T03:28:25.338Z,6.68
2017-12-26T03:29:25.347Z,6.67
2017-12-26T03:30:25.326Z,6.71
2017-12-26T03:31:25.346Z,6.82
2017-12-26T03:32:25.302Z,6.83
2017-12-26T03:33:25.303Z,6.86
2017-12-26T03:34:25.284Z,6.89
2017-12-26T03:35:25.277Z,6.86
2017-12-26T03:36:25.277Z,6.89
2017-12-26T03:37:25.269Z,6.97
2017-12-26T03:38:25.256Z,6.88
2017-12-26T03:39:25.255Z,7.03
2017-12-26T03:40:25.231Z,7.04
2017-12-26T03:41:25.250Z,7.06
2017-12-26T03:42:25.213Z,7.03
2017-12-26T03:43:25.218Z,7.00
2017-12-26T03:44:25.232Z,7.10
2017-12-26T03:45:25.195Z,7.11
2017-12-26T03:46:25.187Z,7.13
2017-12-26T03:47:25.176Z,7.13
2017-12-26T03:48:25.237Z,7.08
2017-12-26T03:49:25.173Z,7.16
2017-12-26T03:50:25.161Z,7.16
2017-12-26T03:51:25.141Z,7.15
2017-12-26T03:52:25.148Z,7.22
2017-12-26T03:53:25.142Z,7.15
2017-12-26T03:54:27.069Z,7.11
2017-12-26T03:55:25.127Z,7.08
2017-12-26T03:56:25.088Z,7.06
2017-12-26T03:57:25.131Z,7.11
2017-12-26T03:58:25.086Z,7.00
2017-12-26T03:59:25.093Z,7.07
2017-12-26T04:00:25.074Z,7.08
2017-12-26T04:01:25.064Z,7.13
2017-12-26T04:02:25.055Z,7.07
2017-12-26T04:03:25.068Z,7.16
2017-12-26T04:04:26.571Z,7.08
2017-12-26T04:05:25.032Z,7.11
2017-12-26T04:06:25.008Z,7.08
2017-12-26T04:07:25.035Z,7.19
2017-12-26T04:08:25.015Z,7.22
2017-12-26T04:09:25.001Z,7.08
2017-12-26T04:10:24.989Z,7.07
2017-12-26T04:11:24.983Z,7.10
2017-12-26T04:12:24.957Z,7.08
2017-12-26T04:13:24.947Z,7.07
2017-12-26T04:14:24.956Z,7.08
2017-12-26T04:15:24.943Z,6.93
2017-12-26T04:16:24.962Z,7.04
2017-12-26T04:17:24.931Z,7.07
2017-12-26T04:18:24.932Z,7.08
2017-12-26T04:19:24.912Z,7.04
2017-12-26T04:20:24.894Z,6.97
2017-12-26T04:21:24.927Z,7.04
2017-12-26T04:22:24.902Z,7.03
2017-12-26T04:23:26.602Z,6.99
2017-12-26T04:24:24.900Z,7.04
2017-12-26T04:25:24.860Z,7.04
2017-12-26T04:26:24.843Z,7.10
2017-12-26T04:27:24.840Z,7.13
2017-12-26T04:28:24.829Z,7.13
2017-12-26T04:29:24.821Z,7.10
2017-12-26T04:30:24.814Z,7.15
2017-12-26T04:31:24.812Z,7.21
2017-12-26T04:32:24.793Z,7.15
2017-12-26T04:33:24.787Z,7.08
2017-12-26T04:34:24.812Z,7.13
2017-12-26T04:35:24.813Z,7.13
2017-12-26T04:36:24.769Z,7.08
2017-12-26T04:37:24.769Z,7.13
2017-12-26T04:38:24.771Z,7.10
2017-12-26T04:39:24.766Z,7.16
2017-12-26T04:40:24.734Z,7.10
2017-12-26T04:41:24.772Z,7.10
2017-12-26T04:42:24.711Z,7.03
2017-12-26T04:43:24.711Z,7.07
2017-12-26T04:44:24.699Z,7.04
2017-12-26T04:45:24.689Z,7.10
2017-12-26T04:46:24.693Z,7.08
2017-12-26T04:47:24.700Z,7.10
2017-12-26T04:48:24.663Z,7.10
2017-12-26T04:49:24.661Z,7.10
2017-12-26T04:50:24.670Z,7.08
2017-12-26T04:51:24.659Z,7.10
2017-12-26T04:52:24.635Z,7.19
2017-12-26T04:53:24.644Z,7.19
2017-12-26T04:54:24.620Z,7.19
2017-12-26T04:55:24.639Z,7.21
2017-12-26T04:56:24.591Z,7.16
2017-12-26T04:57:24.603Z,7.25
2017-12-26T04:58:24.596Z,7.28
2017-12-26T04:59:24.574Z,7.19
2017-12-26T05:00:24.565Z,7.28
2017-12-26T05:01:24.561Z,7.31
2017-12-26T05:02:24.552Z,7.26
2017-12-26T05:03:24.546Z,7.33
2017-12-26T05:04:24.540Z,7.36
2017-12-26T05:05:24.537Z,7.34
2017-12-26T05:06:24.528Z,7.34
2017-12-26T05:07:24.508Z,7.43
2017-12-26T05:08:24.504Z,7.37
2017-12-26T05:09:26.082Z,7.40
2017-12-26T05:10:24.489Z,7.47
2017-12-26T05:11:24.472Z,7.37
2017-12-26T05:12:24.478Z,7.36
2017-12-26T05:13:24.478Z,7.39
2017-12-26T05:14:24.480Z,7.31
2017-12-26T05:15:24.475Z,7.43
2017-12-26T05:16:24.444Z,7.42
2017-12-26T05:17:24.453Z,7.39
2017-12-26T05:18:24.421Z,7.44
2017-12-26T05:19:24.432Z,7.36
2017-12-26T05:20:24.443Z,7.34
2017-12-26T05:21:24.391Z,7.44
2017-12-26T05:22:24.429Z,7.43
2017-12-26T05:23:24.391Z,7.44
2017-12-26T05:24:24.417Z,7.39
2017-12-26T05:25:24.388Z,7.44
2017-12-26T05:26:24.393Z,7.43
2017-12-26T05:27:24.382Z,7.49
2017-12-26T05:28:24.374Z,7.47
2017-12-26T05:29:24.344Z,7.47
2017-12-26T05:30:24.365Z,7.55
2017-12-26T05:31:24.335Z,7.55
2017-12-26T05:32:24.328Z,7.57
2017-12-26T05:33:24.392Z,7.52
2017-12-26T05:34:24.334Z,7.55
2017-12-26T05:35:24.352Z,7.58
2017-12-26T05:36:24.318Z,7.57
2017-12-26T05:37:24.325Z,7.60
2017-12-26T05:38:24.270Z,7.55
2017-12-26T05:39:24.289Z,7.74
2017-12-26T05:40:26.116Z,7.66
2017-12-26T05:41:24.250Z,7.58
2017-12-26T05:42:24.226Z,7.58
2017-12-26T05:43:24.247Z,7.60
2017-12-26T05:44:24.233Z,7.61
2017-12-26T05:45:24.237Z,7.61
2017-12-26T05:46:24.213Z,7.57
2017-12-26T05:47:24.214Z,7.61
2017-12-26T05:48:24.208Z,7.58
2017-12-26T05:49:24.208Z,7.44
2017-12-26T05:50:26.157Z,7.46
2017-12-26T05:51:24.180Z,7.49
2017-12-26T05:52:24.179Z,7.40
2017-12-26T05:53:24.179Z,7.43
2017-12-26T05:54:24.168Z,7.42
2017-12-26T05:55:24.134Z,7.43
2017-12-26T05:56:24.196Z,7.39
2017-12-26T05:57:24.152Z,7.37
2017-12-26T05:58:24.138Z,7.43
2017-12-26T05:59:24.128Z,7.39
2017-12-26T06:00:24.102Z,7.29
2017-12-26T06:01:24.110Z,7.22
2017-12-26T06:02:24.090Z,7.22
2017-12-26T06:03:24.063Z,7.18
2017-12-26T06:04:24.069Z,7.25
2017-12-26T06:05:24.083Z,7.19
2017-12-26T06:06:24.074Z,7.22
2017-12-26T06:07:24.067Z,7.22
2017-12-26T06:08:24.045Z,7.19
2017-12-26T06:09:24.032Z,7.24
2017-12-26T06:10:24.031Z,7.15
2017-12-26T06:11:24.025Z,7.19
2017-12-26T06:12:24.012Z,7.15
2017-12-26T06:13:24.031Z,7.15
2017-12-26T06:13:35.997Z,7.13
2017-12-26T06:15:23.991Z,7.11
2017-12-26T06:16:23.964Z,7.11
2017-12-26T06:17:23.988Z,7.10
2017-12-26T06:18:25.622Z,7.06
2017-12-26T06:19:23.951Z,7.06
2017-12-26T06:20:23.956Z,6.99
2017-12-26T06:21:23.969Z,7.00
2017-12-26T06:22:25.621Z,7.07
2017-12-26T06:23:23.910Z,7.10
2017-12-26T06:24:23.928Z,7.08
2017-12-26T06:25:23.926Z,7.07
2017-12-26T06:26:23.915Z,7.16
2017-12-26T06:27:23.878Z,7.08
2017-12-26T06:28:23.898Z,7.10
2017-12-26T06:29:23.869Z,7.21
2017-12-26T06:30:23.875Z,7.21
2017-12-26T06:31:23.849Z,7.24
2017-12-26T06:32:23.844Z,7.36
2017-12-26T06:33:23.839Z,7.31
2017-12-26T06:34:23.851Z,7.37
2017-12-26T06:35:23.842Z,7.37
2017-12-26T06:36:23.834Z,7.42
2017-12-26T06:37:23.854Z,7.46
2017-12-26T06:38:23.798Z,7.44
2017-12-26T06:39:23.807Z,7.46
2017-12-26T06:40:23.806Z,7.57
2017-12-26T06:41:23.766Z,7.60
2017-12-26T06:42:23.802Z,7.55
2017-12-26T06:43:23.773Z,7.73
2017-12-26T06:44:23.771Z,7.73
2017-12-26T06:45:23.738Z,7.74
2017-12-26T06:46:23.742Z,7.74
2017-12-26T06:47:23.731Z,7.83
2017-12-26T06:48:23.732Z,7.92
2017-12-26T06:49:23.710Z,8.10
2017-12-26T06:50:23.729Z,8.10
2017-12-26T06:51:23.697Z,8.19
2017-12-26T06:52:23.683Z,8.20
2017-12-26T06:53:23.680Z,8.29
2017-12-26T06:54:23.707Z,8.44
2017-12-26T06:55:23.665Z,8.35
2017-12-26T06:56:23.657Z,8.41
2017-12-26T06:57:23.644Z,8.53
2017-12-26T06:58:23.643Z,8.56
2017-12-26T06:59:23.647Z,8.63
2017-12-26T07:00:23.617Z,8.74
2017-12-26T07:01:23.646Z,8.85
2017-12-26T07:02:23.623Z,8.86
2017-12-26T07:03:23.631Z,8.93
2017-12-26T07:04:23.605Z,9.01
2017-12-26T07:05:23.598Z,8.98
2017-12-26T07:06:23.611Z,8.96
2017-12-26T07:07:23.619Z,8.95
2017-12-26T07:08:23.582Z,8.92
2017-12-26T07:09:23.578Z,8.93
2017-12-26T07:10:23.924Z,8.98
2017-12-26T07:11:23.544Z,9.12
2017-12-26T07:12:23.558Z,9.09
2017-12-26T07:13:23.544Z,9.04
2017-12-26T07:14:23.534Z,9.16
2017-12-26T07:15:23.547Z,9.24
2017-12-26T07:16:23.524Z,9.22
2017-12-26T07:17:23.519Z,9.19
2017-12-26T07:18:23.494Z,9.16
2017-12-26T07:19:23.494Z,9.19
2017-12-26T07:20:23.490Z,9.11
2017-12-26T07:21:23.485Z,9.18
2017-12-26T07:22:23.536Z,9.22
2017-12-26T07:23:23.466Z,9.24
2017-12-26T07:24:23.453Z,9.14
2017-12-26T07:25:23.449Z,9.12
2017-12-26T07:26:23.462Z,9.24
2017-12-26T07:27:23.438Z,9.19
2017-12-26T07:28:23.475Z,9.14
2017-12-26T07:29:23.434Z,9.14
2017-12-26T07:30:23.445Z,9.14
2017-12-26T07:31:23.424Z,9.14
2017-12-26T07:32:23.419Z,9.19
2017-12-26T07:33:23.438Z,9.22
2017-12-26T07:34:23.442Z,9.14
2017-12-26T07:35:23.377Z,9.14
2017-12-26T07:36:23.395Z,9.22
2017-12-26T07:37:23.452Z,9.22
2017-12-26T07:38:23.379Z,9.04
2017-12-26T07:39:23.383Z,9.18
2017-12-26T07:40:23.367Z,9.11
2017-12-26T07:41:23.345Z,9.09
2017-12-26T07:42:23.353Z,9.06
2017-12-26T07:43:23.348Z,8.99
2017-12-26T07:44:23.340Z,9.01
2017-12-26T07:45:23.331Z,9.01
2017-12-26T07:46:23.322Z,8.93
2017-12-26T07:47:23.328Z,8.96
2017-12-26T07:48:23.293Z,8.99
2017-12-26T07:49:23.338Z,8.96
2017-12-26T07:50:23.288Z,9.04
2017-12-26T07:51:23.273Z,9.01
2017-12-26T07:52:23.276Z,8.93
2017-12-26T07:53:23.283Z,8.95
2017-12-26T07:54:23.268Z,8.88
2017-12-26T07:55:23.257Z,8.85
2017-12-26T07:56:23.259Z,8.80
2017-12-26T07:57:23.240Z,8.78
2017-12-26T07:58:23.249Z,8.86
2017-12-26T07:59:23.224Z,8.83
2017-12-26T08:00:23.220Z,8.83
2017-12-26T08:01:23.217Z,8.85
2017-12-26T08:02:23.233Z,8.83
2017-12-26T08:03:23.208Z,8.83
2017-12-26T08:04:23.197Z,8.85
2017-12-26T08:05:23.183Z,8.85
2017-12-26T08:05:35.188Z,8.85
2017-12-26T08:07:23.173Z,8.81
2017-12-26T08:08:23.168Z,8.81
2017-12-26T08:09:23.177Z,8.83
2017-12-26T08:10:23.170Z,8.89
2017-12-26T08:11:23.147Z,8.85
2017-12-26T08:12:23.137Z,8.86
2017-12-26T08:13:23.136Z,8.83
2017-12-26T08:14:23.133Z,8.83
2017-12-26T08:15:23.117Z,8.80
2017-12-26T08:16:23.116Z,8.81
2017-12-26T08:17:23.122Z,8.83
2017-12-26T08:18:23.134Z,8.83
2017-12-26T08:19:23.093Z,8.83
2017-12-26T08:20:23.098Z,8.77
2017-12-26T08:21:23.080Z,8.81
2017-12-26T08:22:23.067Z,8.80
2017-12-26T08:23:23.071Z,8.81
2017-12-26T08:24:23.055Z,8.83
2017-12-26T08:25:23.066Z,8.85
2017-12-26T08:26:23.060Z,8.83
2017-12-26T08:27:23.037Z,8.77
2017-12-26T08:28:23.034Z,8.78
2017-12-26T08:29:23.029Z,8.77
2017-12-26T08:30:23.043Z,8.81
2017-12-26T08:31:23.024Z,8.75
2017-12-26T08:32:23.020Z,8.74
2017-12-26T08:33:22.991Z,8.77
2017-12-26T08:34:22.997Z,8.78
2017-12-26T08:35:22.994Z,8.77
2017-12-26T08:36:22.987Z,8.80
2017-12-26T08:37:22.960Z,8.80
2017-12-26T08:38:22.966Z,8.78
2017-12-26T08:39:22.969Z,8.72
2017-12-26T08:40:22.946Z,8.78
2017-12-26T08:41:22.954Z,8.75
2017-12-26T08:42:22.939Z,8.77
2017-12-26T08:43:22.924Z,8.62
2017-12-26T08:44:22.918Z,8.68
2017-12-26T08:45:22.926Z,8.55
2017-12-26T08:46:22.911Z,8.56
2017-12-26T08:47:22.903Z,8.57
2017-12-26T08:48:22.895Z,8.50
2017-12-26T08:49:22.910Z,8.53
2017-12-26T08:50:22.884Z,8.50
2017-12-26T08:51:22.879Z,8.56
2017-12-26T08:52:22.875Z,8.35
2017-12-26T08:53:22.868Z,8.37
2017-12-26T08:54:22.852Z,8.26
2017-12-26T08:55:22.854Z,8.20
2017-12-26T08:56:22.856Z,8.17
2017-12-26T08:57:22.835Z,8.05
2017-12-26T08:58:22.857Z,8.05
2017-12-26T08:59:22.828Z,8.06
2017-12-26T09:00:22.826Z,8.17
2017-12-26T09:01:22.817Z,8.13
2017-12-26T09:02:22.805Z,8.10
2017-12-26T09:03:22.817Z,8.06
2017-12-26T09:04:22.815Z,8.16
2017-12-26T09:05:22.781Z,8.12
2017-12-26T09:06:22.770Z,8.19
2017-12-26T09:07:22.785Z,8.09
2017-12-26T09:08:22.771Z,8.04
2017-12-26T09:09:22.780Z,8.09
2017-12-26T09:10:22.747Z,8.02
2017-12-26T09:11:24.681Z,8.13
2017-12-26T09:12:22.733Z,8.06
2017-12-26T09:13:22.716Z,8.12
2017-12-26T09:14:22.714Z,8.09
2017-12-26T09:15:22.727Z,8.06
2017-12-26T09:16:22.726Z,8.06
2017-12-26T09:17:22.729Z,8.14
2017-12-26T09:18:22.682Z,8.12
2017-12-26T09:19:22.696Z,8.10
2017-12-26T09:20:22.675Z,8.12
2017-12-26T09:21:22.704Z,8.13
2017-12-26T09:22:22.669Z,8.19
2017-12-26T09:23:22.662Z,8.09
2017-12-26T09:24:22.657Z,8.16
2017-12-26T09:25:22.635Z,8.16
2017-12-26T09:26:22.712Z,8.19
2017-12-26T09:27:22.674Z,8.14
2017-12-26T09:28:22.634Z,8.24
2017-12-26T09:29:22.628Z,8.28
2017-12-26T09:30:22.633Z,8.24
2017-12-26T09:31:22.600Z,8.16
2017-12-26T09:32:22.612Z,8.20
2017-12-26T09:33:22.578Z,8.16
2017-12-26T09:34:22.569Z,8.19
2017-12-26T09:35:22.572Z,8.17
2017-12-26T09:36:22.551Z,8.20
2017-12-26T09:37:22.582Z,8.16
2017-12-26T09:38:22.589Z,8.20
2017-12-26T09:39:22.597Z,8.16
2017-12-26T09:40:22.545Z,8.12
2017-12-26T09:41:22.596Z,8.16
2017-12-26T09:42:22.545Z,8.14
2017-12-26T09:43:22.565Z,8.14
2017-12-26T09:44:22.537Z,8.16
2017-12-26T09:45:22.550Z,8.23
2017-12-26T09:46:22.552Z,8.19
2017-12-26T09:47:22.518Z,8.16
2017-12-26T09:48:22.522Z,8.19
2017-12-26T09:49:22.513Z,8.16
2017-12-26T09:50:22.517Z,8.14
2017-12-26T09:51:22.444Z,8.01
2017-12-26T09:52:22.454Z,7.99
2017-12-26T09:53:22.449Z,8.13
2017-12-26T09:54:22.452Z,8.10
2017-12-26T09:55:22.522Z,8.04
2017-12-26T09:56:22.631Z,8.06
2017-12-26T09:57:22.441Z,8.14
2017-12-26T09:58:22.408Z,8.20
2017-12-26T09:59:22.402Z,8.17
2017-12-26T10:00:22.391Z,8.23
2017-12-26T10:01:22.387Z,8.24
2017-12-26T10:02:22.405Z,8.23
2017-12-26T10:03:22.414Z,8.19
2017-12-26T10:04:22.362Z,8.19
2017-12-26T10:05:22.363Z,8.19
2017-12-26T10:06:22.347Z,8.26
2017-12-26T10:07:22.350Z,8.21
2017-12-26T10:08:22.336Z,8.26
2017-12-26T10:09:22.339Z,8.17
2017-12-26T10:10:22.350Z,8.17
2017-12-26T10:11:22.327Z,8.16
2017-12-26T10:12:22.332Z,8.20
2017-12-26T10:13:22.312Z,8.20
2017-12-26T10:14:22.320Z,8.14
2017-12-26T10:15:22.292Z,8.16
2017-12-26T10:16:22.303Z,8.14
2017-12-26T10:17:22.292Z,8.20
2017-12-26T10:18:22.272Z,8.13
2017-12-26T10:19:22.261Z,8.19
2017-12-26T10:20:22.250Z,8.14
2017-12-26T10:21:22.249Z,8.19
2017-12-26T10:22:22.234Z,8.17
2017-12-26T10:23:22.239Z,8.14
2017-12-26T10:24:22.242Z,8.20
2017-12-26T10:25:22.228Z,8.23
2017-12-26T10:26:22.221Z,8.23
2017-12-26T10:27:22.224Z,8.26
2017-12-26T10:28:22.212Z,8.26
2017-12-26T10:29:22.187Z,8.20
2017-12-26T10:30:22.186Z,8.20
2017-12-26T10:31:22.193Z,8.23
2017-12-26T10:32:22.190Z,8.26
2017-12-26T10:33:22.156Z,8.24
2017-12-26T10:33:34.165Z,8.23
2017-12-26T10:35:22.159Z,8.24
2017-12-26T10:36:22.139Z,8.28
2017-12-26T10:37:22.145Z,8.28
2017-12-26T10:38:22.137Z,8.31
2017-12-26T10:39:22.133Z,8.32
2017-12-26T10:40:22.135Z,8.29
2017-12-26T10:41:22.115Z,8.23
2017-12-26T10:42:22.124Z,8.34
2017-12-26T10:43:22.096Z,8.24
2017-12-26T10:44:23.735Z,8.35
2017-12-26T10:45:22.090Z,8.31
2017-12-26T10:46:22.085Z,8.39
2017-12-26T10:47:22.081Z,8.39
2017-12-26T10:48:22.065Z,8.32
2017-12-26T10:49:22.072Z,8.35
2017-12-26T10:50:22.064Z,8.32
2017-12-26T10:51:22.058Z,8.47
2017-12-26T10:52:22.038Z,8.31
2017-12-26T10:53:22.052Z,8.37
2017-12-26T10:54:22.038Z,8.50
2017-12-26T10:55:22.038Z,8.50
2017-12-26T10:56:22.047Z,8.42
2017-12-26T10:57:22.014Z,8.47
2017-12-26T10:58:22.007Z,8.44
2017-12-26T10:59:22.001Z,8.46
2017-12-26T11:00:21.998Z,8.46
2017-12-26T11:01:21.981Z,8.46
2017-12-26T11:02:21.976Z,8.46
2017-12-26T11:03:21.967Z,8.46
2017-12-26T11:04:21.959Z,8.46
2017-12-26T11:05:21.954Z,8.42
2017-12-26T11:06:21.956Z,8.41
2017-12-26T11:07:23.719Z,8.41
2017-12-26T11:08:21.928Z,8.55
2017-12-26T11:09:21.939Z,8.49
2017-12-26T11:10:21.935Z,8.52
2017-12-26T11:11:21.910Z,8.50
2017-12-26T11:12:21.913Z,8.56
2017-12-26T11:13:21.903Z,8.53
2017-12-26T11:14:21.894Z,8.42
2017-12-26T11:15:21.898Z,8.50
2017-12-26T11:16:21.884Z,8.44
2017-12-26T11:17:21.885Z,8.55
2017-12-26T11:18:21.886Z,8.56
2017-12-26T11:19:21.866Z,8.55
2017-12-26T11:20:21.872Z,8.60
2017-12-26T11:21:21.843Z,8.59
2017-12-26T11:22:23.734Z,8.67
2017-12-26T11:23:23.717Z,8.70
2017-12-26T11:24:21.829Z,8.75
2017-12-26T11:25:21.842Z,8.75
2017-12-26T11:26:21.816Z,8.81
2017-12-26T11:27:21.821Z,8.75
2017-12-26T11:28:21.827Z,8.68
2017-12-26T11:29:21.803Z,8.77
2017-12-26T11:30:23.728Z,8.74
2017-12-26T11:31:21.798Z,8.72
2017-12-26T11:32:21.786Z,8.74
2017-12-26T11:33:21.787Z,8.78
2017-12-26T11:34:21.793Z,8.70
2017-12-26T11:35:23.737Z,8.70
2017-12-26T11:36:21.761Z,8.70
2017-12-26T11:37:21.767Z,8.77
2017-12-26T11:38:21.749Z,8.65
2017-12-26T11:39:21.734Z,8.68
2017-12-26T11:40:21.737Z,8.60
2017-12-26T11:41:21.720Z,8.53
2017-12-26T11:42:21.736Z,8.60
2017-12-26T11:43:21.711Z,8.53
2017-12-26T11:44:21.710Z,8.53
2017-12-26T11:45:21.708Z,8.49
2017-12-26T11:46:21.680Z,8.39
2017-12-26T11:47:21.675Z,8.47
2017-12-26T11:48:21.686Z,8.37
2017-12-26T11:49:21.674Z,8.44
2017-12-26T11:50:21.658Z,8.42
2017-12-26T11:51:21.658Z,8.39
2017-12-26T11:52:21.653Z,8.32
2017-12-26T11:53:21.639Z,8.29
2017-12-26T11:54:21.637Z,8.26
2017-12-26T11:55:21.627Z,8.26
2017-12-26T11:56:21.632Z,8.21
2017-12-26T11:57:21.608Z,8.21
2017-12-26T11:58:21.615Z,8.24
2017-12-26T11:59:21.609Z,8.16
2017-12-26T12:00:21.586Z,8.21
2017-12-26T12:01:21.594Z,8.16
2017-12-26T12:02:21.591Z,8.13
2017-12-26T12:03:21.567Z,8.17
2017-12-26T12:04:21.582Z,8.17
2017-12-26T12:05:21.572Z,8.14
2017-12-26T12:06:21.568Z,8.05
2017-12-26T12:07:23.247Z,8.12
2017-12-26T12:08:21.533Z,8.14
2017-12-26T12:09:21.533Z,8.21
2017-12-26T12:10:21.528Z,8.23
2017-12-26T12:11:21.510Z,8.23
2017-12-26T12:12:21.528Z,8.23
2017-12-26T12:13:21.506Z,8.26
2017-12-26T12:14:21.489Z,8.37
2017-12-26T12:15:21.507Z,8.37
2017-12-26T12:16:21.480Z,8.32
2017-12-26T12:17:21.521Z,8.35
2017-12-26T12:18:21.483Z,8.52
2017-12-26T12:19:21.462Z,8.52
2017-12-26T12:20:21.447Z,8.38
2017-12-26T12:21:21.474Z,8.42
2017-12-26T12:22:21.438Z,8.47
2017-12-26T12:23:21.434Z,8.57
2017-12-26T12:24:21.438Z,8.53
2017-12-26T12:25:21.486Z,8.57
2017-12-26T12:26:21.408Z,8.52
2017-12-26T12:27:21.399Z,8.57
2017-12-26T12:28:21.387Z,8.57
2017-12-26T12:29:21.388Z,8.60
2017-12-26T12:30:21.374Z,8.59
2017-12-26T12:31:21.417Z,8.56
2017-12-26T12:32:21.373Z,8.72
2017-12-26T12:33:21.379Z,8.75
2017-12-26T12:34:21.372Z,8.75
2017-12-26T12:35:21.344Z,8.83
2017-12-26T12:36:21.337Z,8.83
2017-12-26T12:37:21.328Z,8.85
2017-12-26T12:38:21.321Z,8.85
2017-12-26T12:39:21.335Z,8.89
2017-12-26T12:40:21.352Z,8.81
2017-12-26T12:41:21.292Z,8.85
2017-12-26T12:42:21.292Z,8.90
2017-12-26T12:43:21.306Z,8.85
2017-12-26T12:44:21.273Z,8.80
2017-12-26T12:45:21.268Z,8.85
2017-12-26T12:46:21.272Z,8.85
2017-12-26T12:47:22.774Z,8.92
2017-12-26T12:48:21.249Z,8.89
2017-12-26T12:49:21.258Z,8.93
2017-12-26T12:50:21.247Z,8.98
2017-12-26T12:51:21.233Z,8.95
2017-12-26T12:52:21.227Z,8.98
2017-12-26T12:53:21.213Z,8.98
2017-12-26T12:54:21.214Z,8.96
2017-12-26T12:55:21.232Z,9.04
2017-12-26T12:56:21.196Z,8.98
2017-12-26T12:57:21.202Z,9.04
2017-12-26T12:58:21.183Z,9.08
2017-12-26T12:59:21.178Z,8.99
2017-12-26T13:00:21.180Z,8.96
2017-12-26T13:01:21.171Z,9.04
2017-12-26T13:02:21.179Z,8.96
2017-12-26T13:03:21.154Z,9.06
2017-12-26T13:04:21.140Z,9.01
2017-12-26T13:05:21.153Z,9.03
2017-12-26T13:06:21.139Z,8.99
2017-12-26T13:07:21.147Z,8.98
2017-12-26T13:08:21.120Z,8.99
2017-12-26T13:09:21.125Z,9.06
2017-12-26T13:10:21.109Z,9.09
2017-12-26T13:11:22.771Z,9.08
2017-12-26T13:12:22.761Z,9.11
2017-12-26T13:13:21.089Z,9.08
2017-12-26T13:14:21.101Z,9.14
2017-12-26T13:15:21.115Z,9.11
2017-12-26T13:16:21.080Z,9.14
2017-12-26T13:17:21.095Z,9.11
2017-12-26T13:18:22.776Z,9.11
2017-12-26T13:19:22.776Z,9.04
2017-12-26T13:20:21.064Z,9.06
2017-12-26T13:21:21.087Z,9.15
2017-12-26T13:22:21.055Z,9.09
2017-12-26T13:23:21.035Z,9.16
2017-12-26T13:24:21.047Z,9.08
2017-12-26T13:25:21.021Z,9.12
2017-12-26T13:26:22.761Z,9.14
2017-12-26T13:27:21.001Z,9.06
2017-12-26T13:28:20.985Z,9.03
2017-12-26T13:29:21.007Z,9.03
2017-12-26T13:30:22.786Z,8.96
2017-12-26T13:31:20.988Z,8.96
2017-12-26T13:32:20.954Z,9.04
2017-12-26T13:33:20.974Z,9.03
2017-12-26T13:34:20.962Z,9.03
2017-12-26T13:35:20.939Z,8.98
2017-12-26T13:36:20.949Z,9.03
2017-12-26T13:37:20.929Z,9.08
2017-12-26T13:38:20.931Z,9.08
2017-12-26T13:39:20.911Z,9.11
2017-12-26T13:40:20.911Z,9.06
2017-12-26T13:41:20.900Z,9.08
2017-12-26T13:42:20.899Z,9.03
2017-12-26T13:43:20.894Z,9.08
2017-12-26T13:44:20.908Z,8.95
2017-12-26T13:45:20.884Z,8.98
2017-12-26T13:45:32.887Z,8.98
2017-12-26T13:47:20.866Z,8.95
2017-12-26T13:48:20.865Z,9.01
2017-12-26T13:49:20.855Z,8.98
2017-12-26T13:50:20.859Z,8.93
2017-12-26T13:51:20.846Z,8.98
2017-12-26T13:52:20.840Z,8.88
2017-12-26T13:53:20.828Z,8.85
2017-12-26T13:54:20.821Z,8.80
2017-12-26T13:55:22.790Z,8.85
2017-12-26T13:56:20.825Z,8.83
2017-12-26T13:57:20.815Z,8.80